sensor_id;sensor_type;location;lat;lon;timestamp;P1;durP1;ratioP1;P2;durP2;ratioP2
69754;SDS011;57023;52.218;5.158;2024-01-30T00:02:11;23.90;;;12.75;;
69754;SDS011;57023;52.218;5.158;2024-01-30T00:04:37;19.42;;;12.05;;
69754;SDS011;57023;52.218;5.158;2024-01-30T00:07:02;19.85;;;10.98;;
69754;SDS011;57023;52.218;5.158;2024-01-30T00:09:28;25.77;;;13.02;;
69754;SDS011;57023;52.218;5.158;2024-01-30T00:11:53;24.17;;;11.73;;
69754;SDS011;57023;52.218;5.158;2024-01-30T00:14:19;23.90;;;13.02;;
69754;SDS011;57023;52.218;5.158;2024-01-30T00:16:44;24.83;;;13.75;;
69754;SDS011;57023;52.218;5.158;2024-01-30T00:19:10;24.38;;;13.75;;
69754;SDS011;57023;52.218;5.158;2024-01-30T00:21:35;23.27;;;13.65;;
69754;SDS011;57023;52.218;5.158;2024-01-30T00:24:00;22.27;;;12.77;;
69754;SDS011;57023;52.218;5.158;2024-01-30T00:26:26;26.92;;;13.85;;
69754;SDS011;57023;52.218;5.158;2024-01-30T00:28:51;22.27;;;13.35;;
69754;SDS011;57023;52.218;5.158;2024-01-30T00:31:19;24.85;;;13.43;;
69754;SDS011;57023;52.218;5.158;2024-01-30T00:33:44;13.35;;;7.20;;
69754;SDS011;57023;52.218;5.158;2024-01-30T00:36:10;23.10;;;13.50;;
69754;SDS011;57023;52.218;5.158;2024-01-30T00:38:35;21.58;;;13.30;;
69754;SDS011;57023;52.218;5.158;2024-01-30T00:41:01;22.52;;;13.60;;
69754;SDS011;57023;52.218;5.158;2024-01-30T00:43:30;22.10;;;13.02;;
69754;SDS011;57023;52.218;5.158;2024-01-30T00:45:56;21.05;;;12.75;;
69754;SDS011;57023;52.218;5.158;2024-01-30T00:48:23;19.75;;;13.10;;
69754;SDS011;57023;52.218;5.158;2024-01-30T00:50:48;21.15;;;13.05;;
69754;SDS011;57023;52.218;5.158;2024-01-30T00:53:13;22.88;;;12.63;;
69754;SDS011;57023;52.218;5.158;2024-01-30T00:55:38;22.45;;;12.50;;
69754;SDS011;57023;52.218;5.158;2024-01-30T00:58:04;20.67;;;10.88;;
69754;SDS011;57023;52.218;5.158;2024-01-30T01:00:29;22.67;;;13.20;;
69754;SDS011;57023;52.218;5.158;2024-01-30T01:02:56;20.45;;;12.10;;
69754;SDS011;57023;52.218;5.158;2024-01-30T01:05:21;22.92;;;12.27;;
69754;SDS011;57023;52.218;5.158;2024-01-30T01:07:46;20.00;;;12.63;;
69754;SDS011;57023;52.218;5.158;2024-01-30T01:10:16;21.95;;;10.52;;
69754;SDS011;57023;52.218;5.158;2024-01-30T01:12:42;20.00;;;12.00;;
69754;SDS011;57023;52.218;5.158;2024-01-30T01:15:07;22.83;;;12.80;;
69754;SDS011;57023;52.218;5.158;2024-01-30T01:17:36;18.45;;;10.32;;
69754;SDS011;57023;52.218;5.158;2024-01-30T01:20:02;18.65;;;10.15;;
69754;SDS011;57023;52.218;5.158;2024-01-30T01:22:28;22.80;;;13.57;;
69754;SDS011;57023;52.218;5.158;2024-01-30T01:24:53;16.30;;;10.40;;
69754;SDS011;57023;52.218;5.158;2024-01-30T01:27:19;20.40;;;10.80;;
69754;SDS011;57023;52.218;5.158;2024-01-30T01:29:44;20.98;;;11.70;;
69754;SDS011;57023;52.218;5.158;2024-01-30T01:32:10;20.38;;;11.65;;
69754;SDS011;57023;52.218;5.158;2024-01-30T01:34:35;21.05;;;11.43;;
69754;SDS011;57023;52.218;5.158;2024-01-30T01:37:01;16.27;;;8.68;;
69754;SDS011;57023;52.218;5.158;2024-01-30T01:39:26;15.20;;;7.50;;
69754;SDS011;57023;52.218;5.158;2024-01-30T01:41:51;18.35;;;10.23;;
69754;SDS011;57023;52.218;5.158;2024-01-30T01:44:17;21.10;;;12.32;;
69754;SDS011;57023;52.218;5.158;2024-01-30T01:46:43;21.60;;;12.05;;
69754;SDS011;57023;52.218;5.158;2024-01-30T01:49:09;17.95;;;11.27;;
69754;SDS011;57023;52.218;5.158;2024-01-30T01:51:35;18.02;;;11.38;;
69754;SDS011;57023;52.218;5.158;2024-01-30T01:54:02;18.63;;;11.60;;
69754;SDS011;57023;52.218;5.158;2024-01-30T01:56:28;20.20;;;11.00;;
69754;SDS011;57023;52.218;5.158;2024-01-30T01:58:54;20.27;;;11.93;;
69754;SDS011;57023;52.218;5.158;2024-01-30T02:01:20;21.52;;;11.88;;
69754;SDS011;57023;52.218;5.158;2024-01-30T02:03:46;20.58;;;11.40;;
69754;SDS011;57023;52.218;5.158;2024-01-30T02:06:12;17.83;;;9.82;;
69754;SDS011;57023;52.218;5.158;2024-01-30T02:08:47;18.15;;;11.68;;
69754;SDS011;57023;52.218;5.158;2024-01-30T02:11:13;18.30;;;11.38;;
69754;SDS011;57023;52.218;5.158;2024-01-30T02:13:38;21.20;;;12.07;;
69754;SDS011;57023;52.218;5.158;2024-01-30T02:16:04;19.17;;;11.95;;
69754;SDS011;57023;52.218;5.158;2024-01-30T02:18:30;19.17;;;12.20;;
69754;SDS011;57023;52.218;5.158;2024-01-30T02:20:56;15.43;;;8.98;;
69754;SDS011;57023;52.218;5.158;2024-01-30T02:23:24;22.77;;;11.98;;
69754;SDS011;57023;52.218;5.158;2024-01-30T02:25:52;19.25;;;11.07;;
69754;SDS011;57023;52.218;5.158;2024-01-30T02:28:18;16.83;;;10.93;;
69754;SDS011;57023;52.218;5.158;2024-01-30T02:30:44;18.88;;;10.93;;
69754;SDS011;57023;52.218;5.158;2024-01-30T02:33:09;19.40;;;10.38;;
69754;SDS011;57023;52.218;5.158;2024-01-30T02:35:34;13.93;;;7.95;;
69754;SDS011;57023;52.218;5.158;2024-01-30T02:38:00;18.13;;;10.52;;
69754;SDS011;57023;52.218;5.158;2024-01-30T02:40:25;22.45;;;10.05;;
69754;SDS011;57023;52.218;5.158;2024-01-30T02:42:51;18.48;;;11.30;;
69754;SDS011;57023;52.218;5.158;2024-01-30T02:45:16;19.67;;;10.90;;
69754;SDS011;57023;52.218;5.158;2024-01-30T02:47:42;20.42;;;11.70;;
69754;SDS011;57023;52.218;5.158;2024-01-30T02:50:07;17.85;;;10.93;;
69754;SDS011;57023;52.218;5.158;2024-01-30T02:52:33;19.90;;;11.50;;
69754;SDS011;57023;52.218;5.158;2024-01-30T02:54:58;19.60;;;11.02;;
69754;SDS011;57023;52.218;5.158;2024-01-30T02:57:24;17.67;;;9.77;;
69754;SDS011;57023;52.218;5.158;2024-01-30T02:59:49;18.48;;;11.27;;
69754;SDS011;57023;52.218;5.158;2024-01-30T03:02:15;16.25;;;9.63;;
69754;SDS011;57023;52.218;5.158;2024-01-30T03:04:43;19.65;;;10.90;;
69754;SDS011;57023;52.218;5.158;2024-01-30T03:07:08;19.50;;;11.80;;
69754;SDS011;57023;52.218;5.158;2024-01-30T03:09:34;20.17;;;11.65;;
69754;SDS011;57023;52.218;5.158;2024-01-30T03:11:59;19.70;;;11.57;;
69754;SDS011;57023;52.218;5.158;2024-01-30T03:14:25;18.05;;;11.45;;
69754;SDS011;57023;52.218;5.158;2024-01-30T03:16:51;17.85;;;10.95;;
69754;SDS011;57023;52.218;5.158;2024-01-30T03:19:16;19.55;;;11.00;;
69754;SDS011;57023;52.218;5.158;2024-01-30T03:21:41;18.80;;;9.68;;
69754;SDS011;57023;52.218;5.158;2024-01-30T03:24:07;19.23;;;10.70;;
69754;SDS011;57023;52.218;5.158;2024-01-30T03:26:32;19.50;;;11.32;;
69754;SDS011;57023;52.218;5.158;2024-01-30T03:28:58;20.30;;;10.90;;
69754;SDS011;57023;52.218;5.158;2024-01-30T03:31:23;19.85;;;11.35;;
69754;SDS011;57023;52.218;5.158;2024-01-30T03:33:48;19.20;;;11.15;;
69754;SDS011;57023;52.218;5.158;2024-01-30T03:36:15;18.00;;;10.27;;
69754;SDS011;57023;52.218;5.158;2024-01-30T03:38:40;18.50;;;11.23;;
69754;SDS011;57023;52.218;5.158;2024-01-30T03:41:07;16.85;;;10.55;;
69754;SDS011;57023;52.218;5.158;2024-01-30T03:43:33;18.08;;;11.48;;
69754;SDS011;57023;52.218;5.158;2024-01-30T03:45:59;14.80;;;9.07;;
69754;SDS011;57023;52.218;5.158;2024-01-30T03:48:24;15.13;;;7.55;;
69754;SDS011;57023;52.218;5.158;2024-01-30T03:50:52;16.92;;;10.90;;
69754;SDS011;57023;52.218;5.158;2024-01-30T03:53:17;16.08;;;9.90;;
69754;SDS011;57023;52.218;5.158;2024-01-30T03:55:42;17.80;;;10.63;;
69754;SDS011;57023;52.218;5.158;2024-01-30T03:58:08;11.93;;;6.78;;
69754;SDS011;57023;52.218;5.158;2024-01-30T04:00:33;19.00;;;11.05;;
69754;SDS011;57023;52.218;5.158;2024-01-30T04:02:58;10.93;;;6.40;;
69754;SDS011;57023;52.218;5.158;2024-01-30T04:05:24;12.75;;;7.07;;
69754;SDS011;57023;52.218;5.158;2024-01-30T04:07:49;17.00;;;10.43;;
69754;SDS011;57023;52.218;5.158;2024-01-30T04:10:14;20.60;;;11.13;;
69754;SDS011;57023;52.218;5.158;2024-01-30T04:12:40;18.00;;;10.32;;
69754;SDS011;57023;52.218;5.158;2024-01-30T04:15:05;18.65;;;11.25;;
69754;SDS011;57023;52.218;5.158;2024-01-30T04:17:30;18.23;;;10.35;;
69754;SDS011;57023;52.218;5.158;2024-01-30T04:19:56;19.33;;;11.73;;
69754;SDS011;57023;52.218;5.158;2024-01-30T04:22:21;20.30;;;11.77;;
69754;SDS011;57023;52.218;5.158;2024-01-30T04:24:46;19.10;;;11.20;;
69754;SDS011;57023;52.218;5.158;2024-01-30T04:27:12;17.23;;;9.75;;
69754;SDS011;57023;52.218;5.158;2024-01-30T04:29:37;17.42;;;9.38;;
69754;SDS011;57023;52.218;5.158;2024-01-30T04:32:02;19.23;;;10.75;;
69754;SDS011;57023;52.218;5.158;2024-01-30T04:34:28;21.23;;;9.55;;
69754;SDS011;57023;52.218;5.158;2024-01-30T04:36:53;15.52;;;9.02;;
69754;SDS011;57023;52.218;5.158;2024-01-30T04:39:19;15.90;;;9.02;;
69754;SDS011;57023;52.218;5.158;2024-01-30T04:41:44;19.55;;;11.30;;
69754;SDS011;57023;52.218;5.158;2024-01-30T04:44:09;15.52;;;10.32;;
69754;SDS011;57023;52.218;5.158;2024-01-30T04:46:35;18.52;;;10.55;;
69754;SDS011;57023;52.218;5.158;2024-01-30T04:49:00;19.80;;;10.38;;
69754;SDS011;57023;52.218;5.158;2024-01-30T04:51:25;19.65;;;10.77;;
69754;SDS011;57023;52.218;5.158;2024-01-30T04:53:50;20.38;;;10.10;;
69754;SDS011;57023;52.218;5.158;2024-01-30T04:56:16;21.42;;;11.07;;
69754;SDS011;57023;52.218;5.158;2024-01-30T04:58:41;15.65;;;9.07;;
69754;SDS011;57023;52.218;5.158;2024-01-30T05:01:06;18.88;;;11.25;;
69754;SDS011;57023;52.218;5.158;2024-01-30T05:03:35;20.95;;;10.93;;
69754;SDS011;57023;52.218;5.158;2024-01-30T05:06:00;18.30;;;9.25;;
69754;SDS011;57023;52.218;5.158;2024-01-30T05:08:26;19.23;;;11.45;;
69754;SDS011;57023;52.218;5.158;2024-01-30T05:10:51;18.55;;;11.45;;
69754;SDS011;57023;52.218;5.158;2024-01-30T05:13:16;17.63;;;10.55;;
69754;SDS011;57023;52.218;5.158;2024-01-30T05:15:41;19.13;;;10.75;;
69754;SDS011;57023;52.218;5.158;2024-01-30T05:18:07;20.85;;;11.75;;
69754;SDS011;57023;52.218;5.158;2024-01-30T05:20:32;19.88;;;10.75;;
69754;SDS011;57023;52.218;5.158;2024-01-30T05:22:57;17.85;;;11.27;;
69754;SDS011;57023;52.218;5.158;2024-01-30T05:25:23;18.70;;;9.90;;
69754;SDS011;57023;52.218;5.158;2024-01-30T05:27:48;18.17;;;10.75;;
69754;SDS011;57023;52.218;5.158;2024-01-30T05:30:14;20.08;;;12.32;;
69754;SDS011;57023;52.218;5.158;2024-01-30T05:32:40;15.48;;;8.27;;
69754;SDS011;57023;52.218;5.158;2024-01-30T05:35:05;17.80;;;11.07;;
69754;SDS011;57023;52.218;5.158;2024-01-30T05:37:32;19.65;;;11.65;;
69754;SDS011;57023;52.218;5.158;2024-01-30T05:39:58;14.82;;;8.15;;
69754;SDS011;57023;52.218;5.158;2024-01-30T05:42:23;16.80;;;9.43;;
69754;SDS011;57023;52.218;5.158;2024-01-30T05:44:49;15.40;;;9.80;;
69754;SDS011;57023;52.218;5.158;2024-01-30T05:47:14;14.20;;;8.88;;
69754;SDS011;57023;52.218;5.158;2024-01-30T05:49:40;17.77;;;10.43;;
69754;SDS011;57023;52.218;5.158;2024-01-30T05:52:06;14.35;;;8.00;;
69754;SDS011;57023;52.218;5.158;2024-01-30T05:54:31;17.42;;;11.15;;
69754;SDS011;57023;52.218;5.158;2024-01-30T05:56:56;17.83;;;10.15;;
69754;SDS011;57023;52.218;5.158;2024-01-30T05:59:22;20.58;;;10.45;;
69754;SDS011;57023;52.218;5.158;2024-01-30T06:01:47;20.48;;;10.88;;
69754;SDS011;57023;52.218;5.158;2024-01-30T06:04:13;17.58;;;11.38;;
69754;SDS011;57023;52.218;5.158;2024-01-30T06:06:39;20.27;;;10.52;;
69754;SDS011;57023;52.218;5.158;2024-01-30T06:09:05;18.17;;;11.18;;
69754;SDS011;57023;52.218;5.158;2024-01-30T06:11:30;18.92;;;10.50;;
69754;SDS011;57023;52.218;5.158;2024-01-30T06:13:55;14.50;;;8.38;;
69754;SDS011;57023;52.218;5.158;2024-01-30T06:16:21;18.42;;;10.88;;
69754;SDS011;57023;52.218;5.158;2024-01-30T06:18:47;20.27;;;10.60;;
69754;SDS011;57023;52.218;5.158;2024-01-30T06:21:13;17.55;;;9.88;;
69754;SDS011;57023;52.218;5.158;2024-01-30T06:23:38;14.65;;;7.97;;
69754;SDS011;57023;52.218;5.158;2024-01-30T06:26:03;19.08;;;10.35;;
69754;SDS011;57023;52.218;5.158;2024-01-30T06:28:32;15.98;;;8.63;;
69754;SDS011;57023;52.218;5.158;2024-01-30T06:30:58;18.75;;;9.93;;
69754;SDS011;57023;52.218;5.158;2024-01-30T06:33:23;17.38;;;9.98;;
69754;SDS011;57023;52.218;5.158;2024-01-30T06:35:48;16.50;;;9.60;;
69754;SDS011;57023;52.218;5.158;2024-01-30T06:38:13;19.92;;;8.45;;
69754;SDS011;57023;52.218;5.158;2024-01-30T06:40:40;15.00;;;8.77;;
69754;SDS011;57023;52.218;5.158;2024-01-30T06:43:08;14.35;;;7.90;;
69754;SDS011;57023;52.218;5.158;2024-01-30T06:45:34;15.45;;;8.82;;
69754;SDS011;57023;52.218;5.158;2024-01-30T06:48:00;15.68;;;8.52;;
69754;SDS011;57023;52.218;5.158;2024-01-30T06:50:25;17.15;;;9.82;;
69754;SDS011;57023;52.218;5.158;2024-01-30T06:52:51;17.67;;;8.93;;
69754;SDS011;57023;52.218;5.158;2024-01-30T06:55:19;14.93;;;8.85;;
69754;SDS011;57023;52.218;5.158;2024-01-30T06:57:44;17.10;;;9.98;;
69754;SDS011;57023;52.218;5.158;2024-01-30T07:00:10;16.08;;;8.20;;
69754;SDS011;57023;52.218;5.158;2024-01-30T07:02:35;16.05;;;8.18;;
69754;SDS011;57023;52.218;5.158;2024-01-30T07:05:01;14.45;;;8.90;;
69754;SDS011;57023;52.218;5.158;2024-01-30T07:07:29;14.05;;;8.32;;
69754;SDS011;57023;52.218;5.158;2024-01-30T07:09:54;15.27;;;8.63;;
69754;SDS011;57023;52.218;5.158;2024-01-30T07:12:23;16.02;;;9.50;;
69754;SDS011;57023;52.218;5.158;2024-01-30T07:14:50;18.33;;;9.70;;
69754;SDS011;57023;52.218;5.158;2024-01-30T07:17:15;16.80;;;8.45;;
69754;SDS011;57023;52.218;5.158;2024-01-30T07:19:41;17.27;;;9.77;;
69754;SDS011;57023;52.218;5.158;2024-01-30T07:22:06;19.45;;;10.32;;
69754;SDS011;57023;52.218;5.158;2024-01-30T07:24:31;12.20;;;7.95;;
69754;SDS011;57023;52.218;5.158;2024-01-30T07:26:57;18.85;;;9.60;;
69754;SDS011;57023;52.218;5.158;2024-01-30T07:29:22;14.95;;;6.50;;
69754;SDS011;57023;52.218;5.158;2024-01-30T07:31:47;14.35;;;9.75;;
69754;SDS011;57023;52.218;5.158;2024-01-30T07:34:13;15.25;;;8.15;;
69754;SDS011;57023;52.218;5.158;2024-01-30T07:36:38;16.85;;;10.05;;
69754;SDS011;57023;52.218;5.158;2024-01-30T07:39:04;21.50;;;9.77;;
69754;SDS011;57023;52.218;5.158;2024-01-30T07:41:29;14.98;;;9.35;;
69754;SDS011;57023;52.218;5.158;2024-01-30T07:43:54;19.92;;;10.52;;
69754;SDS011;57023;52.218;5.158;2024-01-30T07:46:20;13.00;;;7.47;;
69754;SDS011;57023;52.218;5.158;2024-01-30T07:48:45;13.80;;;8.55;;
69754;SDS011;57023;52.218;5.158;2024-01-30T07:51:13;15.85;;;8.18;;
69754;SDS011;57023;52.218;5.158;2024-01-30T07:53:38;16.58;;;8.85;;
69754;SDS011;57023;52.218;5.158;2024-01-30T07:56:05;16.65;;;9.50;;
69754;SDS011;57023;52.218;5.158;2024-01-30T07:58:30;16.40;;;9.27;;
69754;SDS011;57023;52.218;5.158;2024-01-30T08:00:56;15.65;;;9.00;;
69754;SDS011;57023;52.218;5.158;2024-01-30T08:03:23;15.95;;;8.52;;
69754;SDS011;57023;52.218;5.158;2024-01-30T08:05:49;16.70;;;8.48;;
69754;SDS011;57023;52.218;5.158;2024-01-30T08:08:14;15.15;;;7.00;;
69754;SDS011;57023;52.218;5.158;2024-01-30T08:10:39;15.00;;;7.65;;
69754;SDS011;57023;52.218;5.158;2024-01-30T08:13:05;18.67;;;10.07;;
69754;SDS011;57023;52.218;5.158;2024-01-30T08:15:30;15.25;;;8.07;;
69754;SDS011;57023;52.218;5.158;2024-01-30T08:17:55;14.18;;;8.02;;
69754;SDS011;57023;52.218;5.158;2024-01-30T08:20:23;15.40;;;7.68;;
69754;SDS011;57023;52.218;5.158;2024-01-30T08:22:49;17.58;;;9.10;;
69754;SDS011;57023;52.218;5.158;2024-01-30T08:25:14;20.30;;;9.48;;
69754;SDS011;57023;52.218;5.158;2024-01-30T08:27:39;17.67;;;8.43;;
69754;SDS011;57023;52.218;5.158;2024-01-30T08:30:08;13.60;;;6.93;;
69754;SDS011;57023;52.218;5.158;2024-01-30T08:32:34;17.75;;;8.73;;
69754;SDS011;57023;52.218;5.158;2024-01-30T08:34:59;15.82;;;8.85;;
69754;SDS011;57023;52.218;5.158;2024-01-30T08:37:28;19.02;;;9.52;;
69754;SDS011;57023;52.218;5.158;2024-01-30T08:39:54;15.38;;;7.03;;
69754;SDS011;57023;52.218;5.158;2024-01-30T08:42:22;16.35;;;8.48;;
69754;SDS011;57023;52.218;5.158;2024-01-30T08:44:48;17.77;;;8.23;;
69754;SDS011;57023;52.218;5.158;2024-01-30T08:47:14;18.80;;;8.40;;
69754;SDS011;57023;52.218;5.158;2024-01-30T08:49:41;14.50;;;7.55;;
69754;SDS011;57023;52.218;5.158;2024-01-30T08:52:08;12.65;;;7.15;;
69754;SDS011;57023;52.218;5.158;2024-01-30T08:54:33;15.35;;;7.70;;
69754;SDS011;57023;52.218;5.158;2024-01-30T08:57:00;14.43;;;8.90;;
69754;SDS011;57023;52.218;5.158;2024-01-30T08:59:25;16.45;;;9.23;;
69754;SDS011;57023;52.218;5.158;2024-01-30T09:01:50;14.18;;;8.20;;
69754;SDS011;57023;52.218;5.158;2024-01-30T09:04:18;17.73;;;8.45;;
69754;SDS011;57023;52.218;5.158;2024-01-30T09:06:47;16.98;;;8.10;;
69754;SDS011;57023;52.218;5.158;2024-01-30T09:09:13;17.48;;;9.85;;
69754;SDS011;57023;52.218;5.158;2024-01-30T09:11:39;17.85;;;8.52;;
69754;SDS011;57023;52.218;5.158;2024-01-30T09:14:04;16.83;;;8.30;;
69754;SDS011;57023;52.218;5.158;2024-01-30T09:16:30;14.50;;;8.77;;
69754;SDS011;57023;52.218;5.158;2024-01-30T09:18:55;17.08;;;8.32;;
69754;SDS011;57023;52.218;5.158;2024-01-30T09:21:20;11.00;;;6.57;;
69754;SDS011;57023;52.218;5.158;2024-01-30T09:23:46;16.00;;;8.00;;
69754;SDS011;57023;52.218;5.158;2024-01-30T09:26:11;12.05;;;7.40;;
69754;SDS011;57023;52.218;5.158;2024-01-30T09:28:37;21.45;;;8.88;;
69754;SDS011;57023;52.218;5.158;2024-01-30T09:31:03;17.73;;;7.85;;
69754;SDS011;57023;52.218;5.158;2024-01-30T09:33:28;14.68;;;9.48;;
69754;SDS011;57023;52.218;5.158;2024-01-30T09:35:53;14.45;;;7.05;;
69754;SDS011;57023;52.218;5.158;2024-01-30T09:38:19;16.08;;;9.25;;
69754;SDS011;57023;52.218;5.158;2024-01-30T09:40:44;14.68;;;8.32;;
69754;SDS011;57023;52.218;5.158;2024-01-30T09:43:15;15.90;;;10.00;;
69754;SDS011;57023;52.218;5.158;2024-01-30T09:45:42;19.00;;;9.13;;
69754;SDS011;57023;52.218;5.158;2024-01-30T09:48:07;12.60;;;8.48;;
69754;SDS011;57023;52.218;5.158;2024-01-30T09:50:33;19.85;;;11.65;;
69754;SDS011;57023;52.218;5.158;2024-01-30T09:53:01;16.42;;;7.82;;
69754;SDS011;57023;52.218;5.158;2024-01-30T09:55:26;13.88;;;9.07;;
69754;SDS011;57023;52.218;5.158;2024-01-30T09:57:52;14.85;;;8.02;;
69754;SDS011;57023;52.218;5.158;2024-01-30T10:00:17;16.90;;;9.30;;
69754;SDS011;57023;52.218;5.158;2024-01-30T10:02:43;18.60;;;8.43;;
69754;SDS011;57023;52.218;5.158;2024-01-30T10:05:09;13.02;;;6.05;;
69754;SDS011;57023;52.218;5.158;2024-01-30T10:07:35;17.90;;;10.43;;
69754;SDS011;57023;52.218;5.158;2024-01-30T10:10:07;13.75;;;7.65;;
69754;SDS011;57023;52.218;5.158;2024-01-30T10:12:32;15.13;;;8.95;;
69754;SDS011;57023;52.218;5.158;2024-01-30T10:14:57;18.00;;;9.75;;
69754;SDS011;57023;52.218;5.158;2024-01-30T10:17:24;15.65;;;8.07;;
69754;SDS011;57023;52.218;5.158;2024-01-30T10:19:50;16.95;;;8.18;;
69754;SDS011;57023;52.218;5.158;2024-01-30T10:22:16;14.60;;;7.80;;
69754;SDS011;57023;52.218;5.158;2024-01-30T10:24:41;15.07;;;9.13;;
69754;SDS011;57023;52.218;5.158;2024-01-30T10:27:07;16.15;;;8.73;;
69754;SDS011;57023;52.218;5.158;2024-01-30T10:29:32;14.18;;;8.13;;
69754;SDS011;57023;52.218;5.158;2024-01-30T10:31:58;14.40;;;7.82;;
69754;SDS011;57023;52.218;5.158;2024-01-30T10:34:23;18.33;;;9.23;;
69754;SDS011;57023;52.218;5.158;2024-01-30T10:36:49;15.00;;;7.97;;
69754;SDS011;57023;52.218;5.158;2024-01-30T10:39:15;13.25;;;7.15;;
69754;SDS011;57023;52.218;5.158;2024-01-30T10:41:43;15.13;;;7.82;;
69754;SDS011;57023;52.218;5.158;2024-01-30T10:44:09;13.85;;;7.43;;
69754;SDS011;57023;52.218;5.158;2024-01-30T10:46:36;16.17;;;7.07;;
69754;SDS011;57023;52.218;5.158;2024-01-30T10:51:28;10.30;;;5.10;;
69754;SDS011;57023;52.218;5.158;2024-01-30T10:53:54;11.02;;;5.28;;
69754;SDS011;57023;52.218;5.158;2024-01-30T10:56:21;9.18;;;5.07;;
69754;SDS011;57023;52.218;5.158;2024-01-30T10:58:55;11.73;;;4.55;;
69754;SDS011;57023;52.218;5.158;2024-01-30T11:01:21;11.95;;;6.10;;
69754;SDS011;57023;52.218;5.158;2024-01-30T11:03:51;12.00;;;4.97;;
69754;SDS011;57023;52.218;5.158;2024-01-30T11:06:17;7.40;;;4.13;;
69754;SDS011;57023;52.218;5.158;2024-01-30T11:08:45;9.52;;;4.25;;
69754;SDS011;57023;52.218;5.158;2024-01-30T11:11:11;9.00;;;3.55;;
69754;SDS011;57023;52.218;5.158;2024-01-30T11:13:36;7.85;;;3.67;;
69754;SDS011;57023;52.218;5.158;2024-01-30T11:16:04;9.43;;;3.67;;
69754;SDS011;57023;52.218;5.158;2024-01-30T11:18:35;6.72;;;3.05;;
69754;SDS011;57023;52.218;5.158;2024-01-30T11:21:00;11.55;;;3.90;;
69754;SDS011;57023;52.218;5.158;2024-01-30T11:23:30;8.32;;;3.80;;
69754;SDS011;57023;52.218;5.158;2024-01-30T11:25:56;8.98;;;3.80;;
69754;SDS011;57023;52.218;5.158;2024-01-30T11:28:22;11.97;;;5.07;;
69754;SDS011;57023;52.218;5.158;2024-01-30T11:30:48;9.23;;;4.68;;
69754;SDS011;57023;52.218;5.158;2024-01-30T11:35:41;8.48;;;4.43;;
69754;SDS011;57023;52.218;5.158;2024-01-30T11:38:07;10.95;;;4.65;;
69754;SDS011;57023;52.218;5.158;2024-01-30T11:40:34;7.87;;;4.57;;
69754;SDS011;57023;52.218;5.158;2024-01-30T11:43:00;9.80;;;4.38;;
69754;SDS011;57023;52.218;5.158;2024-01-30T11:45:27;8.40;;;4.10;;
69754;SDS011;57023;52.218;5.158;2024-01-30T11:47:52;10.07;;;4.07;;
69754;SDS011;57023;52.218;5.158;2024-01-30T11:50:18;6.93;;;3.47;;
69754;SDS011;57023;52.218;5.158;2024-01-30T11:52:43;6.28;;;3.63;;
69754;SDS011;57023;52.218;5.158;2024-01-30T11:55:09;9.80;;;3.28;;
69754;SDS011;57023;52.218;5.158;2024-01-30T11:57:35;6.65;;;3.10;;
69754;SDS011;57023;52.218;5.158;2024-01-30T12:00:01;5.05;;;3.05;;
69754;SDS011;57023;52.218;5.158;2024-01-30T12:02:35;7.55;;;3.25;;
69754;SDS011;57023;52.218;5.158;2024-01-30T12:05:05;4.43;;;2.30;;
69754;SDS011;57023;52.218;5.158;2024-01-30T12:07:30;4.82;;;2.30;;
69754;SDS011;57023;52.218;5.158;2024-01-30T12:09:56;6.93;;;2.70;;
69754;SDS011;57023;52.218;5.158;2024-01-30T12:12:25;5.10;;;2.35;;
69754;SDS011;57023;52.218;5.158;2024-01-30T12:14:51;6.85;;;2.30;;
69754;SDS011;57023;52.218;5.158;2024-01-30T12:17:49;5.28;;;2.33;;
69754;SDS011;57023;52.218;5.158;2024-01-30T12:20:09;6.68;;;2.35;;
69754;SDS011;57023;52.218;5.158;2024-01-30T12:22:38;5.18;;;2.10;;
69754;SDS011;57023;52.218;5.158;2024-01-30T12:25:05;3.58;;;1.92;;
69754;SDS011;57023;52.218;5.158;2024-01-30T12:27:37;7.43;;;2.50;;
69754;SDS011;57023;52.218;5.158;2024-01-30T12:30:09;6.43;;;2.28;;
69754;SDS011;57023;52.218;5.158;2024-01-30T12:32:35;5.07;;;2.47;;
69754;SDS011;57023;52.218;5.158;2024-01-30T12:35:01;5.72;;;2.60;;
69754;SDS011;57023;52.218;5.158;2024-01-30T12:37:27;6.32;;;2.22;;
69754;SDS011;57023;52.218;5.158;2024-01-30T12:39:54;7.88;;;2.90;;
69754;SDS011;57023;52.218;5.158;2024-01-30T12:42:20;6.57;;;2.35;;
69754;SDS011;57023;52.218;5.158;2024-01-30T12:44:48;5.07;;;2.38;;
69754;SDS011;57023;52.218;5.158;2024-01-30T12:47:17;6.13;;;2.53;;
69754;SDS011;57023;52.218;5.158;2024-01-30T12:49:43;8.68;;;2.92;;
69754;SDS011;57023;52.218;5.158;2024-01-30T12:52:09;8.02;;;2.88;;
69754;SDS011;57023;52.218;5.158;2024-01-30T12:54:38;8.55;;;3.00;;
69754;SDS011;57023;52.218;5.158;2024-01-30T12:57:04;3.40;;;2.13;;
69754;SDS011;57023;52.218;5.158;2024-01-30T12:59:30;7.40;;;2.70;;
69754;SDS011;57023;52.218;5.158;2024-01-30T13:01:55;7.43;;;2.90;;
69754;SDS011;57023;52.218;5.158;2024-01-30T13:04:23;5.25;;;2.20;;
69754;SDS011;57023;52.218;5.158;2024-01-30T13:06:49;3.88;;;2.15;;
69754;SDS011;57023;52.218;5.158;2024-01-30T13:09:14;6.15;;;2.90;;
69754;SDS011;57023;52.218;5.158;2024-01-30T13:11:39;8.18;;;2.80;;
69754;SDS011;57023;52.218;5.158;2024-01-30T13:14:05;8.55;;;3.60;;
69754;SDS011;57023;52.218;5.158;2024-01-30T13:16:33;7.13;;;3.00;;
69754;SDS011;57023;52.218;5.158;2024-01-30T13:18:59;6.93;;;3.13;;
69754;SDS011;57023;52.218;5.158;2024-01-30T13:21:26;6.03;;;3.40;;
69754;SDS011;57023;52.218;5.158;2024-01-30T13:23:51;6.60;;;2.95;;
69754;SDS011;57023;52.218;5.158;2024-01-30T13:26:18;7.03;;;3.00;;
69754;SDS011;57023;52.218;5.158;2024-01-30T13:28:44;7.35;;;3.10;;
69754;SDS011;57023;52.218;5.158;2024-01-30T13:31:09;8.30;;;3.20;;
69754;SDS011;57023;52.218;5.158;2024-01-30T13:33:35;5.78;;;2.97;;
69754;SDS011;57023;52.218;5.158;2024-01-30T13:36:00;7.75;;;3.47;;
69754;SDS011;57023;52.218;5.158;2024-01-30T13:38:26;8.25;;;3.85;;
69754;SDS011;57023;52.218;5.158;2024-01-30T13:40:51;11.55;;;3.85;;
69754;SDS011;57023;52.218;5.158;2024-01-30T13:43:17;8.90;;;3.63;;
69754;SDS011;57023;52.218;5.158;2024-01-30T13:45:42;10.70;;;3.65;;
69754;SDS011;57023;52.218;5.158;2024-01-30T13:48:08;7.25;;;3.20;;
69754;SDS011;57023;52.218;5.158;2024-01-30T13:50:33;11.13;;;4.20;;
69754;SDS011;57023;52.218;5.158;2024-01-30T13:52:58;5.93;;;3.95;;
69754;SDS011;57023;52.218;5.158;2024-01-30T13:55:24;8.55;;;4.00;;
69754;SDS011;57023;52.218;5.158;2024-01-30T13:57:50;7.53;;;3.63;;
69754;SDS011;57023;52.218;5.158;2024-01-30T14:00:15;5.13;;;3.70;;
69754;SDS011;57023;52.218;5.158;2024-01-30T14:02:41;8.30;;;4.53;;
69754;SDS011;57023;52.218;5.158;2024-01-30T14:05:09;8.38;;;5.20;;
69754;SDS011;57023;52.218;5.158;2024-01-30T14:07:38;9.43;;;4.38;;
69754;SDS011;57023;52.218;5.158;2024-01-30T14:10:04;13.07;;;5.63;;
69754;SDS011;57023;52.218;5.158;2024-01-30T14:12:30;8.57;;;5.05;;
69754;SDS011;57023;52.218;5.158;2024-01-30T14:15:01;8.55;;;4.25;;
69754;SDS011;57023;52.218;5.158;2024-01-30T14:17:26;10.38;;;5.07;;
69754;SDS011;57023;52.218;5.158;2024-01-30T14:19:51;9.82;;;3.95;;
69754;SDS011;57023;52.218;5.158;2024-01-30T14:22:17;7.20;;;3.90;;
69754;SDS011;57023;52.218;5.158;2024-01-30T14:24:42;8.68;;;4.85;;
69754;SDS011;57023;52.218;5.158;2024-01-30T14:27:07;7.45;;;4.32;;
69754;SDS011;57023;52.218;5.158;2024-01-30T14:29:33;9.18;;;4.35;;
69754;SDS011;57023;52.218;5.158;2024-01-30T14:31:59;7.68;;;4.45;;